Time;durP1;ratioP1;P1;durP2;ratioP2;P2;SDS_P1;SDS_P2;PMS_P1;PMS_P2;Temp;Humidity;BMP_temperature;BMP_pressure;BME280_temperature;BME280_humidity;BME280_pressure;Samples;Min_cycle;Max_cycle;Signal;HPM_P1;HPM_P2
2022/09/24 00:01:38;;;;;;;11.30;8.40;;;9.80;91.20;;;9.71;79.51;97738.72;5070593;28;20459;-75
2022/09/24 00:04:07;;;;;;;9.53;8.10;;;9.90;91.10;;;9.66;78.84;97737.72;5071321;28;20468;-75
2022/09/24 00:06:39;;;;;;;9.17;8.37;;;9.90;91.00;;;9.69;79.24;97748.06;5074388;28;20448;-76
2022/09/24 00:09:07;;;;;;;9.50;8.50;;;9.90;90.80;;;9.64;78.68;97736.06;5079102;28;20455;-76
2022/09/24 00:11:34;;;;;;;10.27;9.20;;;9.90;90.80;;;9.73;78.10;97739.31;5073684;28;20458;-78
2022/09/24 00:14:01;;;;;;;9.50;8.60;;;9.90;90.70;;;9.77;78.11;97740.53;5071005;28;20447;-78
2022/09/24 00:16:32;;;;;;;9.73;8.83;;;9.90;90.70;;;9.82;77.74;97718.31;5069878;28;20529;-75
2022/09/24 00:19:01;;;;;;;9.43;8.50;;;9.90;90.70;;;9.51;77.36;97666.00;5070978;28;20978;-76
2022/09/24 00:21:31;;;;;;;11.07;8.60;;;10.00;90.00;;;9.85;78.26;97728.66;5069698;28;20510;-74
2022/09/24 00:24:03;;;;;;;9.37;8.33;;;10.00;89.90;;;9.89;78.21;97723.66;5066347;28;20465;-74
2022/09/24 00:29:18;;;;;;;8.80;8.00;;;10.00;89.50;;;9.85;78.01;97731.34;5070510;28;20467;-73
2022/09/24 00:31:46;;;;;;;9.57;8.60;;;10.00;89.50;;;9.86;77.27;97719.50;5069933;28;20445;-73
2022/09/24 00:34:13;;;;;;;9.03;8.00;;;10.00;89.50;;;9.79;78.24;97716.03;5068316;28;20454;-73
2022/09/24 00:36:40;;;;;;;14.80;10.50;;;9.90;90.20;;;9.80;78.00;97725.78;5069246;28;20539;-74
2022/09/24 00:39:09;;;;;;;7.87;7.27;;;9.90;90.40;;;9.87;77.54;97723.84;5061600;28;20456;-73
2022/09/24 00:41:38;;;;;;;8.80;7.97;;;10.00;89.40;;;9.82;78.26;97721.00;5065035;28;20946;-73
2022/09/24 00:44:52;;;;;;;9.40;8.50;;;10.00;89.70;;;9.90;77.48;97718.03;5068986;28;20564;-75
2022/09/24 00:47:40;;;;;;;10.50;8.57;;;10.00;89.70;;;9.76;77.51;97714.59;5007582;28;21205;-73
2022/09/24 00:50:18;;;;;;;9.77;8.70;;;9.90;90.50;;;9.80;77.84;97717.69;5056920;28;20950;-75
2022/09/24 00:52:50;;;;;;;8.77;7.87;;;9.90;90.40;;;9.86;77.77;97716.81;5064816;28;20997;-74
2022/09/24 00:55:21;;;;;;;9.30;8.47;;;9.90;90.30;;;9.81;77.42;97713.13;5067105;28;21321;-74
2022/09/24 00:57:51;;;;;;;8.80;7.90;;;9.90;90.30;;;9.68;77.67;97698.66;5069540;28;20470;-75
2022/09/24 01:00:19;;;;;;;14.60;9.10;;;10.00;89.10;;;9.83;77.22;97706.47;5056512;28;20456;-73
2022/09/24 01:02:50;;;;;;;8.93;8.03;;;10.00;89.30;;;9.30;77.69;97632.94;5056065;28;20444;-75
2022/09/24 01:05:18;;;;;;;9.20;8.40;;;10.00;89.30;;;9.85;77.52;97707.06;5061123;28;20455;-76
2022/09/24 01:07:47;;;;;;;9.53;8.63;;;10.00;89.40;;;9.88;76.71;97703.94;5068609;28;20468;-73
2022/09/24 01:10:46;;;;;;;9.53;8.40;;;10.00;89.40;;;9.95;77.14;97705.75;5067323;28;20492;-74
2022/09/24 01:13:13;;;;;;;9.43;8.10;;;10.00;89.10;;;9.88;77.29;97698.53;5069160;28;20495;-77
2022/09/24 01:15:48;;;;;;;9.57;8.77;;;9.90;90.50;;;9.94;77.71;97696.03;5067832;28;20457;-74
2022/09/24 01:18:25;;;;;;;9.43;8.60;;;9.90;90.20;;;9.99;77.65;97702.38;5069339;28;20481;-76
2022/09/24 01:21:09;;;;;;;9.00;8.20;;;9.90;90.40;;;10.01;77.20;97694.09;5067207;28;20524;-75
2022/09/24 01:24:29;;;;;;;10.03;9.13;;;9.90;90.80;;;9.89;77.18;97686.69;5068197;28;20514;-75
2022/09/24 01:27:04;;;;;;;10.23;8.53;;;10.00;89.00;;;9.89;77.02;97692.09;5009429;28;20548;-75
2022/09/24 01:29:54;;;;;;;9.23;8.43;;;9.90;90.30;;;9.89;77.79;97685.88;5068608;28;20840;-73
2022/09/24 01:32:30;;;;;;;13.20;9.37;;;9.90;90.80;;;9.92;76.58;97688.94;5048235;28;20526;-73
2022/09/24 01:35:02;;;;;;;13.30;8.40;;;9.90;90.20;;;9.70;77.46;97676.88;5051389;28;20455;-74
2022/09/24 01:37:33;;;;;;;11.43;9.17;;;9.90;89.30;;;9.77;76.91;97680.34;5067206;28;20563;-73
2022/09/24 01:40:01;;;;;;;10.03;8.50;;;9.90;89.50;;;9.78;77.43;97663.09;5068803;28;20453;-73
2022/09/24 01:42:30;;;;;;;10.33;8.07;;;9.90;89.90;;;9.56;76.82;97620.31;5069346;28;20479;-73
2022/09/24 01:45:01;;;;;;;12.83;8.40;;;9.90;90.10;;;9.63;77.60;97664.28;5066926;28;20977;-75
2022/09/24 01:47:32;;;;;;;11.33;8.40;;;9.80;90.20;;;9.68;77.39;97660.91;5068950;28;20582;-73
2022/09/24 01:50:00;;;;;;;10.87;7.83;;;9.70;90.20;;;9.53;77.93;97658.53;5065751;28;20496;-80
2022/09/24 01:52:45;;;;;;;10.60;8.13;;;9.70;90.60;;;9.52;78.31;97650.63;5065423;28;20574;-74
2022/09/24 01:55:16;;;;;;;9.90;8.50;;;9.70;90.60;;;9.42;78.14;97624.16;5067769;28;20523;-72
2022/09/24 01:57:48;;;;;;;8.97;7.33;;;9.60;90.70;;;9.44;78.08;97632.84;5068001;28;20476;-76
2022/09/24 02:00:20;;;;;;;9.83;8.13;;;9.60;90.80;;;9.38;78.53;97629.16;5065162;28;21049;-75
2022/09/24 02:02:55;;;;;;;9.67;7.67;;;9.50;90.80;;;9.44;78.06;97625.59;5065946;28;20559;-74
2022/09/24 02:05:31;;;;;;;7.60;6.77;;;9.50;90.90;;;9.44;78.68;97616.66;5065519;28;21051;-75
2022/09/24 02:08:05;;;;;;;8.13;7.37;;;9.50;91.10;;;9.41;79.01;97617.09;5065716;28;20445;-72
2022/09/24 02:10:38;;;;;;;10.53;7.20;;;9.50;91.10;;;9.46;78.97;97619.97;5066703;28;20515;-75
2022/09/24 02:13:12;;;;;;;8.57;7.60;;;9.50;91.00;;;9.46;78.77;97614.56;5056557;28;20462;-77
2022/09/24 02:15:45;;;;;;;10.67;7.83;;;9.60;91.00;;;9.45;77.83;97615.63;5045367;28;20507;-74
2022/09/24 02:18:17;;;;;;;9.77;7.07;;;9.60;90.60;;;9.37;78.58;97611.31;5065359;28;20472;-76
2022/09/24 02:20:45;;;;;;;9.80;7.60;;;9.60;90.80;;;9.44;78.20;97606.72;5067823;28;21031;-74
2022/09/24 02:23:15;;;;;;;9.20;7.30;;;9.50;90.90;;;9.40;79.01;97605.50;5065070;28;20511;-74
2022/09/24 02:25:49;;;;;;;9.70;7.93;;;9.60;90.90;;;9.39;78.56;97605.72;5065116;28;20455;-76
2022/09/24 02:28:17;;;;;;;9.33;7.73;;;9.60;90.80;;;9.40;79.12;97601.97;5083642;28;20440;-76
2022/09/24 02:30:52;;;;;;;8.17;7.30;;;9.50;90.80;;;8.97;78.75;97547.72;5065499;28;20505;-75
2022/09/24 02:36:08;;;;;;;8.17;7.33;;;9.40;91.20;;;9.28;79.31;97613.44;5065687;28;20451;-77
2022/09/24 02:38:35;;;;;;;8.03;7.23;;;9.30;91.30;;;9.31;79.39;97607.63;5083022;28;20529;-76
2022/09/24 02:41:02;;;;;;;8.13;7.30;;;9.30;91.90;;;9.28;78.70;97607.25;5067631;28;21087;-72
2022/09/24 02:43:29;;;;;;;7.87;7.03;;;9.30;91.70;;;9.27;79.22;97601.00;5073967;28;20466;-76
2022/09/24 02:45:57;;;;;;;8.20;7.37;;;9.30;92.10;;;9.26;79.39;97599.38;5069687;28;20451;-76
2022/09/24 02:48:25;;;;;;;7.83;7.03;;;9.30;92.10;;;9.17;79.01;97589.88;5067644;28;20487;-76
2022/09/24 02:50:52;;;;;;;10.73;7.40;;;9.30;92.10;;;9.22;79.80;97600.84;5067720;28;20535;-72
2022/09/24 02:53:20;;;;;;;8.10;7.23;;;9.30;91.90;;;9.24;80.08;97590.66;5065194;28;20558;-75
2022/09/24 02:55:47;;;;;;;7.63;7.00;;;9.30;92.00;;;9.30;79.71;97589.78;5064253;28;20458;-76
2022/09/24 02:58:14;;;;;;;8.43;7.63;;;9.40;91.90;;;9.23;79.72;97594.41;5057973;28;20983;-75
2022/09/24 03:00:42;;;;;;;7.67;6.87;;;9.30;92.10;;;9.20;79.76;97595.66;5059287;28;20505;-76
2022/09/24 03:03:11;;;;;;;7.10;6.50;;;9.30;92.10;;;9.16;80.06;97583.66;5067875;28;20454;-74
2022/09/24 03:05:38;;;;;;;8.03;7.20;;;9.40;92.10;;;9.26;79.95;97598.56;5066490;28;20476;-73
2022/09/24 03:08:06;;;;;;;7.70;7.00;;;9.30;92.00;;;9.10;79.83;97581.00;5064886;28;20483;-79
2022/09/24 03:10:33;;;;;;;9.90;7.40;;;9.30;92.30;;;9.07;80.89;97587.66;5061577;28;20979;-76
2022/09/24 03:13:00;;;;;;;7.90;7.07;;;9.30;92.20;;;9.02;81.28;97592.88;5080444;28;20760;-74
2022/09/24 03:15:29;;;;;;;8.00;7.30;;;9.30;92.60;;;9.17;80.52;97589.88;5046198;28;20485;-76
2022/09/24 03:17:56;;;;;;;8.10;7.30;;;9.30;92.50;;;9.17;80.45;97590.72;5062215;28;20476;-75
2022/09/24 03:20:25;;;;;;;7.30;6.60;;;9.30;92.30;;;9.10;80.71;97589.09;5060511;28;20454;-74
2022/09/24 03:22:52;;;;;;;7.53;6.67;;;9.30;92.50;;;8.98;81.02;97592.47;5065726;28;20511;-73
2022/09/24 03:25:20;;;;;;;8.40;6.80;;;9.30;92.80;;;8.87;80.95;97553.56;5059587;28;20464;-75
2022/09/24 03:27:47;;;;;;;8.10;7.40;;;9.30;92.70;;;9.14;81.05;97595.69;5062932;28;20842;-77
2022/09/24 03:32:59;;;;;;;9.20;7.67;;;9.30;92.70;;;9.04;81.47;97588.09;5048966;28;20460;-78
2022/09/24 03:35:28;;;;;;;8.33;7.13;;;9.20;93.00;;;8.95;81.82;97582.13;5064601;28;20840;-75
2022/09/24 03:37:55;;;;;;;8.30;7.50;;;9.20;93.40;;;8.97;82.08;97585.44;5068554;28;20570;-75
2022/09/24 03:40:23;;;;;;;7.73;6.90;;;9.10;93.60;;;8.90;82.55;97584.66;5070406;28;20450;-74
2022/09/24 03:42:50;;;;;;;8.40;7.60;;;9.00;93.80;;;8.95;82.14;97582.13;5070154;28;20540;-73
2022/09/24 03:45:17;;;;;;;7.47;6.73;;;9.10;93.90;;;8.96;81.31;97588.38;5051614;28;21031;-74
2022/09/24 03:47:44;;;;;;;8.63;7.83;;;9.10;93.60;;;8.97;82.41;97585.44;5069793;28;20450;-73
2022/09/24 03:50:11;;;;;;;7.57;6.87;;;9.10;94.20;;;8.96;82.34;97586.47;5070323;28;21071;-74
2022/09/24 03:52:41;;;;;;;8.33;7.13;;;9.10;93.90;;;8.90;82.03;97585.47;5069724;28;20442;-77
2022/09/24 03:55:09;;;;;;;7.60;6.90;;;9.10;93.90;;;8.87;81.93;97582.38;5068121;28;20672;-75
2022/09/24 03:57:36;;;;;;;10.23;7.80;;;9.10;93.90;;;8.86;81.86;97554.63;5071107;28;20446;-75
2022/09/24 04:00:04;;;;;;;8.60;7.00;;;9.20;93.70;;;8.97;81.75;97571.16;5051597;28;20555;-75
2022/09/24 04:02:32;;;;;;;10.03;7.83;;;9.20;93.60;;;8.92;82.57;97571.78;5066632;28;20451;-76
2022/09/24 04:04:59;;;;;;;7.57;6.87;;;9.10;93.50;;;8.84;81.91;97580.94;5069691;28;20490;-76
2022/09/24 04:07:26;;;;;;;8.20;7.50;;;9.10;93.30;;;8.93;81.62;97568.88;5058872;28;20460;-74
2022/09/24 04:09:54;;;;;;;8.80;8.00;;;9.10;93.50;;;8.81;82.25;97567.06;5085355;28;20495;-73
2022/09/24 04:12:22;;;;;;;7.10;6.40;;;9.10;93.40;;;8.93;82.28;97573.44;5068985;28;20458;-74
2022/09/24 04:14:49;;;;;;;8.13;7.43;;;9.10;93.90;;;9.00;82.22;97579.59;5085302;28;20865;-76
2022/09/24 04:17:16;;;;;;;7.20;6.60;;;9.20;93.60;;;8.98;81.99;97581.69;5068667;28;20516;-75
2022/09/24 04:19:43;;;;;;;7.87;7.10;;;9.20;93.30;;;8.95;82.43;97582.13;5062229;28;20482;-74
2022/09/24 04:22:10;;;;;;;8.67;7.40;;;9.20;93.70;;;8.85;82.54;97560.22;5065787;28;20467;-77
2022/09/24 04:24:38;;;;;;;8.67;7.77;;;9.20;93.70;;;8.93;82.86;97582.34;5068252;28;20461;-74
2022/09/24 04:27:06;;;;;;;8.10;7.40;;;9.10;93.90;;;9.04;81.90;97582.69;5066958;28;20492;-74
2022/09/24 04:29:33;;;;;;;8.20;7.50;;;9.10;94.10;;;9.06;81.82;97577.91;5069666;28;20470;-73
2022/09/24 04:32:02;;;;;;;8.43;7.57;;;9.30;93.60;;;9.00;81.24;97571.53;5069539;28;20501;-78
2022/09/24 04:34:29;;;;;;;8.13;7.33;;;9.30;93.20;;;8.86;82.17;97562.69;5084046;28;20456;-77
2022/09/24 04:36:56;;;;;;;8.10;7.20;;;9.20;93.10;;;8.95;82.00;97571.34;5065692;28;20474;-74
2022/09/24 04:39:26;;;;;;;7.57;6.50;;;9.20;93.20;;;8.88;82.47;97570.56;5068618;28;20554;-75
2022/09/24 04:41:53;;;;;;;8.70;7.90;;;9.10;93.50;;;8.80;82.05;97563.56;5069218;28;20529;-77
2022/09/24 04:44:22;;;;;;;8.60;7.80;;;9.10;93.40;;;8.59;82.90;97573.59;5062276;28;20560;-77
2022/09/24 04:46:49;;;;;;;8.27;7.57;;;8.90;94.00;;;8.62;82.80;97561.56;5067942;28;20453;-77
2022/09/24 04:49:17;;;;;;;7.93;7.17;;;8.80;94.60;;;8.52;83.95;97564.72;5068167;28;20539;-73
2022/09/24 04:51:44;;;;;;;9.40;8.03;;;8.70;95.90;;;8.36;84.63;97574.06;5063362;28;20453;-73
2022/09/24 04:54:11;;;;;;;8.30;7.60;;;8.60;95.80;;;8.31;84.95;97566.63;5068307;28;20554;-78
2022/09/24 04:56:38;;;;;;;11.20;8.43;;;8.50;96.50;;;8.30;85.02;97548.81;5053484;28;21243;-76
2022/09/24 04:59:07;;;;;;;8.43;7.70;;;8.50;97.40;;;8.38;84.04;97555.81;5055750;28;20480;-78
2022/09/24 05:01:35;;;;;;;10.00;8.57;;;8.50;97.50;;;8.31;84.80;97560.41;5068571;28;20547;-73
2022/09/24 05:04:03;;;;;;;10.50;8.23;;;8.40;97.30;;;8.12;85.49;97562.97;5068465;28;20460;-74
2022/09/24 05:06:30;;;;;;;8.50;7.73;;;8.30;98.10;;;8.26;85.16;97565.59;5067510;28;20467;-75
2022/09/24 05:08:57;;;;;;;8.87;8.07;;;8.40;98.70;;;8.25;85.26;97566.63;5080319;28;20459;-74
2022/09/24 05:11:24;;;;;;;9.07;8.17;;;8.40;98.90;;;8.22;85.29;97568.72;5063367;28;20478;-75
2022/09/24 05:13:52;;;;;;;9.90;8.07;;;8.30;98.50;;;8.18;85.25;97570.19;5081700;28;20498;-76
2022/09/24 05:16:19;;;;;;;9.00;8.20;;;8.30;99.20;;;8.16;85.71;97572.25;5064599;28;21194;-73
2022/09/24 05:18:47;;;;;;;10.13;9.10;;;8.30;99.60;;;8.12;85.81;97562.97;5069472;28;20658;-74
2022/09/24 05:21:15;;;;;;;9.33;8.47;;;8.30;99.70;;;8.16;85.93;97564.19;5071892;28;20537;-72
2022/09/24 05:23:45;;;;;;;9.03;8.20;;;8.30;99.50;;;8.07;85.61;97533.16;5073276;28;20466;-74
2022/09/24 05:28:57;;;;;;;9.37;8.47;;;8.30;99.10;;;8.22;85.73;97562.53;5072006;28;20470;-74
2022/09/24 05:31:24;;;;;;;9.97;9.07;;;8.40;99.10;;;8.21;85.50;97559.00;5084537;28;20526;-72
2022/09/24 05:33:53;;;;;;;9.50;8.70;;;8.40;98.70;;;8.25;85.01;97561.25;5070321;28;20530;-74
2022/09/24 05:36:21;;;;;;;10.10;9.20;;;8.40;97.90;;;8.29;85.15;97559.81;5077455;28;20462;-75
2022/09/24 05:38:49;;;;;;;10.07;8.60;;;8.50;97.90;;;8.45;84.27;97572.81;5065636;28;20482;-74
2022/09/24 05:41:16;;;;;;;9.10;7.70;;;8.60;97.30;;;8.59;83.94;97562.00;5046635;28;20500;-73
2022/09/24 05:43:43;;;;;;;9.33;8.53;;;8.60;96.70;;;8.61;83.11;97554.53;5049377;28;20500;-76
2022/09/24 05:46:10;;;;;;;9.43;8.43;;;8.80;95.30;;;8.73;83.06;97560.91;5055225;28;20487;-74
2022/09/24 05:48:37;;;;;;;11.67;9.20;;;8.90;95.00;;;8.87;nan;97569.75;5069017;28;21035;-78
2022/09/24 05:51:07;;;;;;;8.93;8.13;;;9.00;94.50;;;9.00;82.05;97568.03;5065770;28;20535;-75
2022/09/24 05:53:34;;;;;;;8.50;7.63;;;9.10;93.90;;;9.15;81.13;97576.63;5068708;28;20458;-76
2022/09/24 05:56:01;;;;;;;10.27;8.00;;;9.20;93.30;;;9.04;81.75;97564.69;5066463;28;21041;-77
2022/09/24 05:58:28;;;;;;;8.43;7.60;;;9.30;92.80;;;9.20;81.17;97574.09;5066271;28;20469;-73
2022/09/24 06:00:55;;;;;;;9.30;8.13;;;9.40;92.50;;;9.15;80.81;97568.53;5058335;28;20516;-73
2022/09/24 06:03:23;;;;;;;8.73;8.00;;;9.40;92.20;;;9.22;81.11;97571.19;5068318;28;20957;-71
2022/09/24 06:05:50;;;;;;;9.40;8.10;;;9.40;92.40;;;9.01;80.97;97523.84;5064802;28;20537;-77
2022/09/24 06:08:20;;;;;;;9.87;8.77;;;9.40;92.20;;;9.06;81.48;97562.59;5067703;28;20451;-73
2022/09/24 06:10:48;;;;;;;8.30;7.47;;;9.40;92.10;;;9.21;81.19;97564.16;5067219;28;20624;-71
2022/09/24 06:13:19;;;;;;;9.50;8.60;;;9.40;92.50;;;9.34;80.23;97565.94;5068187;28;20453;-73
2022/09/24 06:15:47;;;;;;;9.30;8.40;;;9.50;92.10;;;9.53;79.78;97561.44;5066105;28;20464;-74
2022/09/24 06:18:14;;;;;;;8.73;7.93;;;9.60;91.70;;;9.48;79.79;97567.47;5067874;28;20460;-72
2022/09/24 06:20:41;;;;;;;8.30;7.50;;;9.70;91.30;;;9.37;79.96;97570.06;5062729;28;20446;-75
2022/09/24 06:23:08;;;;;;;9.20;8.30;;;9.60;91.00;;;9.24;80.48;97574.50;5068171;28;20901;-71
2022/09/24 06:25:37;;;;;;;12.90;8.57;;;9.60;91.20;;;9.26;80.34;97575.09;5066126;28;20471;-70
2022/09/24 06:28:05;;;;;;;9.47;8.60;;;9.60;91.50;;;9.49;79.25;97573.72;5058485;28;20534;-73
2022/09/24 06:30:36;;;;;;;7.83;7.13;;;9.60;91.50;;;9.60;78.52;97580.25;5067019;28;20487;-73
2022/09/24 06:33:05;;;;;;;8.60;7.80;;;9.70;91.00;;;9.64;78.88;97579.59;5068418;28;20441;-74
2022/09/24 06:35:35;;;;;;;9.33;8.53;;;9.80;90.80;;;9.28;80.17;97578.41;5063320;28;20466;-74
2022/09/24 06:38:02;;;;;;;8.67;7.87;;;9.70;90.90;;;9.54;79.22;97583.81;5067794;28;20877;-72
2022/09/24 06:40:29;;;;;;;10.13;9.07;;;9.70;91.20;;;9.58;79.12;97572.38;5065222;28;20582;-76
2022/09/24 06:42:58;;;;;;;9.37;8.53;;;9.80;90.70;;;9.76;77.96;97584.25;5067819;28;20772;-71
2022/09/24 06:45:26;;;;;;;10.60;9.60;;;9.90;90.60;;;9.87;77.26;97583.53;5062536;28;20570;-72
2022/09/24 06:47:54;;;;;;;16.83;8.80;;;10.00;89.70;;;10.17;76.23;97587.44;5066229;28;20474;-75
2022/09/24 06:50:23;;;;;;;8.30;7.60;;;10.20;88.40;;;10.31;76.33;97577.31;5054670;28;20454;-76
2022/09/24 06:52:50;;;;;;;9.23;8.43;;;10.30;87.60;;;10.41;76.09;97593.84;5065905;28;20488;-74
2022/09/24 06:55:18;;;;;;;8.57;7.90;;;10.40;87.30;;;10.26;75.05;97536.66;5045907;28;20464;-72
2022/09/24 06:57:46;;;;;;;10.73;9.60;;;10.70;86.70;;;10.67;74.75;97601.88;5057714;28;20459;-73
2022/09/24 07:00:15;;;;;;;10.90;9.70;;;10.80;85.90;;;10.84;74.46;97596.66;5064799;28;20457;-74
2022/09/24 07:02:43;;;;;;;9.40;8.57;;;10.90;85.70;;;11.01;73.10;97586.06;5067920;28;20444;-71
2022/09/24 07:05:10;;;;;;;9.00;8.10;;;11.00;84.90;;;11.24;72.57;97593.41;5064219;28;20495;-75
2022/09/24 07:07:40;;;;;;;9.27;8.43;;;11.30;84.50;;;11.44;72.02;97589.59;5067447;28;20484;-73
2022/09/24 07:10:08;;;;;;;10.17;9.27;;;11.50;83.90;;;11.41;71.56;97588.19;5065334;28;20441;-74
2022/09/24 07:12:36;;;;;;;8.30;7.47;;;11.60;82.90;;;11.32;71.38;97589.56;5055266;28;20812;-73
2022/09/24 07:15:05;;;;;;;8.50;7.80;;;11.60;82.30;;;11.54;70.62;97584.44;5045237;28;20467;-75
2022/09/24 07:17:33;;;;;;;9.30;8.13;;;11.70;82.30;;;11.83;70.06;97592.72;5059110;28;20545;-74
2022/09/24 07:20:01;;;;;;;9.23;8.40;;;11.90;81.90;;;12.08;68.72;97578.19;5060240;28;20564;-70
2022/09/24 07:22:28;;;;;;;8.70;7.90;;;12.20;81.50;;;12.50;68.18;97579.06;5060831;28;20491;-72
2022/09/24 07:24:55;;;;;;;8.53;7.73;;;12.40;81.60;;;12.60;66.99;97573.84;5066548;28;20835;-72
2022/09/24 07:27:22;;;;;;;9.50;8.57;;;12.60;80.60;;;12.95;66.80;97580.25;5066181;28;20479;-74
2022/09/24 07:29:50;;;;;;;9.37;8.57;;;12.80;80.90;;;12.85;66.52;97570.03;5065929;28;20448;-73
2022/09/24 07:32:18;;;;;;;9.13;8.33;;;12.90;80.10;;;12.88;66.29;97574.97;5066029;28;20534;-74
2022/09/24 07:34:46;;;;;;;10.30;9.20;;;13.00;79.80;;;13.16;65.02;97579.53;5063537;28;20541;-73
2022/09/24 07:37:14;;;;;;;8.57;7.77;;;13.20;79.20;;;12.52;66.25;97585.09;5061566;28;20560;-72
2022/09/24 07:39:42;;;;;;;10.23;8.90;;;12.80;78.80;;;12.49;67.12;97582.81;5067077;28;21092;-73
2022/09/24 07:42:10;;;;;;;9.60;8.90;;;12.70;79.10;;;12.59;66.50;97583.06;5065899;28;20547;-75
2022/09/24 07:44:40;;;;;;;10.13;9.33;;;12.70;79.20;;;12.57;66.33;97585.19;5066523;28;20876;-74
2022/09/24 07:47:07;;;;;;;9.87;8.87;;;12.80;79.00;;;12.64;66.43;97596.69;5066195;28;20928;-73
2022/09/24 07:49:37;;;;;;;9.30;8.37;;;12.70;79.00;;;12.92;65.05;97595.09;5064815;28;20547;-70
2022/09/24 07:52:06;;;;;;;9.27;8.37;;;13.00;78.80;;;12.74;65.83;97580.66;5064903;28;20441;-74
2022/09/24 07:54:33;;;;;;;11.30;9.90;;;12.90;78.80;;;12.78;65.19;97586.44;5065994;28;20534;-73
2022/09/24 07:57:01;;;;;;;9.47;8.57;;;12.90;78.50;;;12.81;65.20;97585.94;5059930;28;20985;-71
2022/09/24 07:59:30;;;;;;;10.00;9.00;;;12.90;78.40;;;13.16;64.59;97592.31;5065246;28;20510;-74
2022/09/24 08:01:57;;;;;;;10.10;9.20;;;13.10;78.50;;;12.78;64.15;97543.06;5065906;28;20447;-74
2022/09/24 08:04:24;;;;;;;9.90;9.10;;;13.10;78.40;;;13.51;64.18;97588.59;5064668;28;20457;-75
2022/09/24 08:06:51;;;;;;;9.93;8.93;;;13.40;78.50;;;13.77;62.72;97589.03;5064158;28;20452;-71
2022/09/24 08:09:20;;;;;;;10.33;9.57;;;13.60;77.80;;;14.00;61.75;97589.94;5046854;28;21165;-71
2022/09/24 08:11:49;;;;;;;9.60;8.70;;;13.90;77.40;;;14.37;60.96;97583.97;5046414;28;20527;-73
2022/09/24 08:14:17;;;;;;;10.17;9.07;;;14.20;77.00;;;14.21;61.07;97587.53;5048768;28;20453;-74
2022/09/24 08:16:44;;;;;;;9.93;9.00;;;14.40;76.50;;;14.63;60.39;97576.13;5062811;28;21094;-72
2022/09/24 08:19:13;;;;;;;9.83;8.87;;;14.60;76.20;;;15.11;58.81;97595.47;5068605;28;20456;-76
2022/09/24 08:21:40;;;;;;;10.27;9.43;;;15.00;75.30;;;14.64;58.72;97588.66;5064747;28;20499;-72
2022/09/24 08:24:07;;;;;;;11.40;9.60;;;15.10;73.90;;;15.20;58.14;97584.97;5067213;28;20457;-73
2022/09/24 08:26:36;;;;;;;10.17;9.27;;;15.20;74.10;;;15.07;58.67;97590.81;5065233;28;20468;-73
2022/09/24 08:29:03;;;;;;;9.00;8.30;;;15.30;74.00;;;15.48;57.26;97595.88;5065052;28;20535;-71
2022/09/24 08:31:33;;;;;;;10.00;8.77;;;15.40;73.90;;;15.84;56.56;97605.13;5062022;28;20458;-73
2022/09/24 08:34:01;;;;;;;10.50;9.07;;;15.70;73.30;;;15.69;56.91;97602.28;5068135;28;20457;-77
2022/09/24 08:36:28;;;;;;;9.93;8.93;;;15.70;73.00;;;15.78;55.93;97589.84;5065609;28;21240;-73
2022/09/24 08:38:55;;;;;;;10.37;8.33;;;15.80;72.50;;;15.53;56.58;97598.63;5066502;28;20441;-71
2022/09/24 08:41:54;;;;;;;9.83;8.63;;;15.70;71.80;;;15.43;56.98;97596.63;5063556;28;20547;-72
2022/09/24 08:47:30;;;;;;;10.27;9.33;;;15.70;72.00;;;15.68;56.61;97595.19;5069108;28;20459;-73
2022/09/24 08:50:09;;;;;;;10.83;9.83;;;15.70;72.10;;;16.02;55.63;97596.88;5066771;28;20556;-78
2022/09/24 08:53:10;;;;;;;10.23;9.33;;;15.80;71.80;;;16.16;54.76;97589.09;5068554;28;20466;-71
2022/09/24 08:55:42;;;;;;;9.50;8.60;;;16.10;70.90;;;16.18;54.56;97576.81;5058601;28;20469;-71
2022/09/24 08:58:30;;;;;;;10.87;9.80;;;16.10;70.60;;;16.48;54.02;97590.91;5062373;28;20455;-80
2022/09/24 09:01:06;;;;;;;12.60;9.63;;;16.20;70.30;;;16.47;53.90;97594.72;5068565;28;20478;-73
2022/09/24 09:03:41;;;;;;;10.67;9.60;;;16.30;70.10;;;16.54;54.18;97596.13;5063104;28;20464;-75
2022/09/24 09:06:16;;;;;;;12.13;11.00;;;16.40;70.00;;;16.80;52.76;97598.16;5057926;28;20465;-72
2022/09/24 09:08:52;;;;;;;11.33;10.23;;;16.70;68.90;;;16.66;52.65;97598.63;5060702;28;20452;-75
2022/09/24 09:11:25;;;;;;;11.00;10.03;;;16.70;68.30;;;16.19;53.55;97600.25;5065201;28;20913;-72
2022/09/24 09:13:58;;;;;;;10.70;9.73;;;16.50;68.20;;;16.67;53.04;97596.72;5067060;28;20473;-74
2022/09/24 09:16:33;;;;;;;10.00;9.10;;;16.60;68.80;;;17.50;51.24;97600.53;5066247;28;20469;-78
2022/09/24 09:19:05;;;;;;;10.50;9.60;;;17.10;68.40;;;17.37;50.67;97543.75;5068130;28;20473;-72
2022/09/24 09:21:40;;;;;;;15.03;9.90;;;17.50;67.90;;;18.02;50.22;97603.34;5068388;28;20441;-71
2022/09/24 09:24:17;;;;;;;12.73;10.57;;;17.90;67.40;;;18.34;49.04;97612.31;5084618;28;20454;-71
2022/09/24 09:26:49;;;;;;;10.73;9.93;;;18.10;66.30;;;18.34;49.36;97601.38;5084027;28;20447;-74
2022/09/24 09:29:18;;;;;;;11.50;9.50;;;18.20;65.90;;;18.08;49.37;97607.69;5068076;28;20894;-71
2022/09/24 09:31:58;;;;;;;11.60;10.50;;;18.10;65.30;;;18.18;49.30;97608.78;5065204;28;20930;-75
2022/09/24 09:34:47;;;;;;;11.60;10.50;;;18.20;65.30;;;17.90;48.70;97592.66;5061404;28;21103;-73
2022/09/24 09:37:27;;;;;;;12.40;9.83;;;18.20;64.20;;;17.88;49.42;97613.94;5047261;28;20553;-73
2022/09/24 09:40:09;;;;;;;11.60;10.20;;;18.00;64.50;;;18.27;48.78;97597.03;5047980;28;20479;-72
2022/09/24 09:42:39;;;;;;;11.20;10.30;;;18.10;64.50;;;19.13;46.73;97606.34;5048402;28;20460;-73
2022/09/24 09:45:31;;;;;;;10.63;9.73;;;18.70;63.60;;;18.78;46.83;97572.53;5050761;28;20452;-72
2022/09/24 09:48:00;;;;;;;11.40;10.40;;;19.00;63.00;;;19.02;46.87;97608.31;5099780;28;20481;-73
2022/09/24 09:50:34;;;;;;;10.80;9.70;;;19.10;62.80;;;19.23;46.57;97609.03;5066422;28;20526;-71
2022/09/24 09:53:03;;;;;;;12.00;10.90;;;19.10;62.90;;;18.82;47.46;97607.28;5068040;28;20448;-71
2022/09/24 09:55:34;;;;;;;11.90;10.80;;;19.00;62.40;;;19.08;46.74;97614.56;5062339;28;20498;-72
2022/09/24 09:58:17;;;;;;;12.07;10.83;;;18.90;62.20;;;18.56;47.69;97620.19;5067544;28;20457;-72
2022/09/24 10:00:48;;;;;;;11.13;10.10;;;18.80;61.80;;;19.22;47.11;97615.59;5061896;28;20499;-72
2022/09/24 10:03:24;;;;;;;11.73;10.50;;;19.00;62.60;;;19.23;47.43;97608.19;5099448;28;20465;-78
2022/09/24 10:05:55;;;;;;;12.27;11.00;;;19.00;62.70;;;19.59;45.70;97607.16;5065400;28;20441;-72
2022/09/24 10:08:23;;;;;;;11.63;10.63;;;19.40;61.60;;;19.50;45.55;97605.03;5066971;28;20952;-72
2022/09/24 10:10:55;;;;;;;12.37;11.30;;;19.50;61.00;;;19.48;45.84;97601.75;5065166;28;20484;-71
2022/09/24 10:13:23;;;;;;;11.80;10.70;;;19.40;61.30;;;18.91;47.31;97601.19;5066590;28;20860;-73
2022/09/24 10:15:55;;;;;;;12.20;11.10;;;19.10;61.30;;;19.24;46.51;97602.44;5064082;28;20500;-75
2022/09/24 10:18:30;;;;;;;11.70;10.70;;;19.10;61.50;;;19.54;45.91;97595.13;5060474;28;21025;-73
2022/09/24 10:21:01;;;;;;;11.80;10.57;;;19.30;61.40;;;19.51;46.11;97598.44;5066871;28;20476;-73
2022/09/24 10:23:36;;;;;;;11.90;10.83;;;19.30;61.20;;;19.36;46.39;97599.34;5058823;28;20464;-71
2022/09/24 10:26:05;;;;;;;11.33;10.43;;;19.40;60.80;;;19.35;45.97;97591.44;5053233;28;20518;-73
2022/09/24 10:31:25;;;;;;;15.57;11.50;;;19.40;60.70;;;19.66;45.63;97588.50;5078722;28;20442;-71
2022/09/24 10:33:57;;;;;;;11.63;10.60;;;19.50;60.40;;;18.83;47.27;97589.75;5057015;28;20470;-73
2022/09/24 10:36:27;;;;;;;14.53;11.80;;;19.10;60.50;;;19.05;47.15;97590.50;5066330;28;20663;-74
2022/09/24 10:39:04;;;;;;;12.77;11.43;;;19.20;61.00;;;20.00;45.72;97595.09;5065811;28;20543;-76
2022/09/24 10:41:32;;;;;;;10.67;9.67;;;19.40;61.30;;;19.42;47.08;97591.94;5061974;28;20571;-72
2022/09/24 10:44:05;;;;;;;11.83;10.83;;;19.50;61.30;;;19.32;47.12;97592.81;5063538;28;20814;-73
2022/09/24 10:47:22;;;;;;;12.20;10.80;;;19.30;61.20;;;19.11;47.87;97586.63;5047712;28;20468;-71
2022/09/24 10:50:05;;;;;;;12.40;11.20;;;19.20;61.10;;;18.87;48.00;97584.50;5083277;28;20536;-73
2022/09/24 10:52:46;;;;;;;12.53;11.43;;;19.20;61.10;;;18.87;48.13;97591.91;5062903;28;20498;-72
2022/09/24 10:55:44;;;;;;;12.90;11.80;;;18.80;61.60;;;18.86;48.25;97591.09;5060785;28;20536;-71